<?xml version="1.0" encoding="utf-8"?>
<gpx xmlns:xsi="http://www.w3.org/2001/XMLSchema-instance" xmlns:xsd="http://www.w3.org/2001/XMLSchema" version="1.1" creator="Shapelink.com" xmlns="http://www.topografix.com/GPX/1/1" xmlns:gpxtpx="http://www.garmin.com/xmlschemas/TrackPointExtension/v1">
  <metadata>
    <name>Kører 5.19 km, 2016-10-12</name>
    <desc></desc>
    <author><name>Stefan Östlund</name></author> 
    <time>2016-10-12T06:47:26Z</time>
  </metadata>
  <trk>
    <name>Kører 5.19 km, 2016-10-12</name>
    <trkseg>
      <trkpt lat="57.775736895169" lon="12.232618285444">
        <ele>8.8</ele>
        <time>2016-10-12T06:47:32Z</time>
      </trkpt>
      <trkpt lat="57.77564377226" lon="12.233117511408">
        <ele>9</ele>
        <time>2016-10-12T06:47:38Z</time>
      </trkpt>
      <trkpt lat="57.775635055084" lon="12.233477597832">
        <ele>9.2</ele>
        <time>2016-10-12T06:47:44Z</time>
      </trkpt>
      <trkpt lat="57.775655674558" lon="12.233767946848">
        <ele>9.2</ele>
        <time>2016-10-12T06:47:50Z</time>
      </trkpt>
      <trkpt lat="57.775635725636" lon="12.234003394419">
        <ele>9.6</ele>
        <time>2016-10-12T06:47:56Z</time>
      </trkpt>
      <trkpt lat="57.775565401495" lon="12.234115376603">
        <ele>10</ele>
        <time>2016-10-12T06:48:00Z</time>
      </trkpt>
      <trkpt lat="57.775442187565" lon="12.234215791765">
        <ele>10</ele>
        <time>2016-10-12T06:48:06Z</time>
      </trkpt>
      <trkpt lat="57.775340179842" lon="12.234348728699">
        <ele>9.8</ele>
        <time>2016-10-12T06:48:12Z</time>
      </trkpt>
      <trkpt lat="57.775277986144" lon="12.234537572906">
        <ele>9.8</ele>
        <time>2016-10-12T06:48:18Z</time>
      </trkpt>
      <trkpt lat="57.775256779937" lon="12.234751646632">
        <ele>9.8</ele>
        <time>2016-10-12T06:48:24Z</time>
      </trkpt>
      <trkpt lat="57.775264742742" lon="12.235012575179">
        <ele>10.8</ele>
        <time>2016-10-12T06:48:30Z</time>
      </trkpt>
      <trkpt lat="57.77526071943" lon="12.235297978874">
        <ele>10.8</ele>
        <time>2016-10-12T06:48:36Z</time>
      </trkpt>
      <trkpt lat="57.775275303936" lon="12.235595536324">
        <ele>10.6</ele>
        <time>2016-10-12T06:48:42Z</time>
      </trkpt>
      <trkpt lat="57.775328026087" lon="12.235878090173">
        <ele>9.6</ele>
        <time>2016-10-12T06:48:48Z</time>
      </trkpt>
      <trkpt lat="57.775383430446" lon="12.236003986311">
        <ele>8.6</ele>
        <time>2016-10-12T06:48:51Z</time>
      </trkpt>
      <trkpt lat="57.775453754587" lon="12.236173803605">
        <ele>8</ele>
        <time>2016-10-12T06:48:55Z</time>
      </trkpt>
      <trkpt lat="57.775485941083" lon="12.236325013081">
        <ele>7.8</ele>
        <time>2016-10-12T06:48:58Z</time>
      </trkpt>
      <trkpt lat="57.775504297444" lon="12.236369185694">
        <ele>7.6</ele>
        <time>2016-10-12T06:48:59Z</time>
      </trkpt>
      <trkpt lat="57.775601527484" lon="12.236554425684">
        <ele>7</ele>
        <time>2016-10-12T06:49:04Z</time>
      </trkpt>
      <trkpt lat="57.775720466645" lon="12.236758189673">
        <ele>6.8</ele>
        <time>2016-10-12T06:49:10Z</time>
      </trkpt>
      <trkpt lat="57.775800597609" lon="12.236904453828">
        <ele>6.6</ele>
        <time>2016-10-12T06:49:14Z</time>
      </trkpt>
      <trkpt lat="57.775929008317" lon="12.237142751245">
        <ele>6.6</ele>
        <time>2016-10-12T06:49:20Z</time>
      </trkpt>
      <trkpt lat="57.776039314121" lon="12.237384485241">
        <ele>6.8</ele>
        <time>2016-10-12T06:49:26Z</time>
      </trkpt>
      <trkpt lat="57.776097316869" lon="12.237491941199">
        <ele>7.6</ele>
        <time>2016-10-12T06:49:29Z</time>
      </trkpt>
      <trkpt lat="57.776210723976" lon="12.237708529495">
        <ele>7.2</ele>
        <time>2016-10-12T06:49:35Z</time>
      </trkpt>
      <trkpt lat="57.776309462758" lon="12.237929644017">
        <ele>7.6</ele>
        <time>2016-10-12T06:49:41Z</time>
      </trkpt>
      <trkpt lat="57.776370063895" lon="12.238079260932">
        <ele>7.6</ele>
        <time>2016-10-12T06:49:45Z</time>
      </trkpt>
      <trkpt lat="57.776464108813" lon="12.238290065717">
        <ele>8</ele>
        <time>2016-10-12T06:49:51Z</time>
      </trkpt>
      <trkpt lat="57.776548682184" lon="12.238519981234">
        <ele>8</ele>
        <time>2016-10-12T06:49:57Z</time>
      </trkpt>
      <trkpt lat="57.776626801492" lon="12.238711340011">
        <ele>8.6</ele>
        <time>2016-10-12T06:50:02Z</time>
      </trkpt>
      <trkpt lat="57.776738280762" lon="12.238918875855">
        <ele>7.8</ele>
        <time>2016-10-12T06:50:08Z</time>
      </trkpt>
      <trkpt lat="57.776760828073" lon="12.238957516414">
        <ele>7.6</ele>
        <time>2016-10-12T06:50:09Z</time>
      </trkpt>
      <trkpt lat="57.776879180501" lon="12.239193634537">
        <ele>7.4</ele>
        <time>2016-10-12T06:50:15Z</time>
      </trkpt>
      <trkpt lat="57.77698655264" lon="12.239432770144">
        <ele>6.8</ele>
        <time>2016-10-12T06:50:21Z</time>
      </trkpt>
      <trkpt lat="57.777073975857" lon="12.239619435057">
        <ele>6.6</ele>
        <time>2016-10-12T06:50:26Z</time>
      </trkpt>
      <trkpt lat="57.777144635274" lon="12.239884470735">
        <ele>6.4</ele>
        <time>2016-10-12T06:50:32Z</time>
      </trkpt>
      <trkpt lat="57.777191825371" lon="12.240178088692">
        <ele>6</ele>
        <time>2016-10-12T06:50:38Z</time>
      </trkpt>
      <trkpt lat="57.77723549507" lon="12.240486039698">
        <ele>5.8</ele>
        <time>2016-10-12T06:50:44Z</time>
      </trkpt>
      <trkpt lat="57.777280086778" lon="12.240680918873">
        <ele>5.8</ele>
        <time>2016-10-12T06:50:49Z</time>
      </trkpt>
      <trkpt lat="57.777339011535" lon="12.24071805069">
        <ele>6</ele>
        <time>2016-10-12T06:50:52Z</time>
      </trkpt>
      <trkpt lat="57.777357535534" lon="12.24075157829">
        <ele>6</ele>
        <time>2016-10-12T06:50:53Z</time>
      </trkpt>
      <trkpt lat="57.777405899097" lon="12.241049387197">
        <ele>5.8</ele>
        <time>2016-10-12T06:50:59Z</time>
      </trkpt>
      <trkpt lat="57.777451161357" lon="12.241358260212">
        <ele>5.8</ele>
        <time>2016-10-12T06:51:05Z</time>
      </trkpt>
      <trkpt lat="57.777475887962" lon="12.241683226475">
        <ele>5.4</ele>
        <time>2016-10-12T06:51:11Z</time>
      </trkpt>
      <trkpt lat="57.77747102646" lon="12.242042893804">
        <ele>5.2</ele>
        <time>2016-10-12T06:51:17Z</time>
      </trkpt>
      <trkpt lat="57.777443785285" lon="12.242360986909">
        <ele>5.4</ele>
        <time>2016-10-12T06:51:23Z</time>
      </trkpt>
      <trkpt lat="57.777419477775" lon="12.242640523274">
        <ele>5.6</ele>
        <time>2016-10-12T06:51:29Z</time>
      </trkpt>
      <trkpt lat="57.777388129469" lon="12.242899523984">
        <ele>6</ele>
        <time>2016-10-12T06:51:35Z</time>
      </trkpt>
      <trkpt lat="57.777336664603" lon="12.243133798089">
        <ele>6.2</ele>
        <time>2016-10-12T06:51:41Z</time>
      </trkpt>
      <trkpt lat="57.777294252189" lon="12.243325240685">
        <ele>6.4</ele>
        <time>2016-10-12T06:51:45Z</time>
      </trkpt>
      <trkpt lat="57.777211858112" lon="12.243644004342">
        <ele>6.4</ele>
        <time>2016-10-12T06:51:51Z</time>
      </trkpt>
      <trkpt lat="57.777123512886" lon="12.243884564872">
        <ele>6.4</ele>
        <time>2016-10-12T06:51:57Z</time>
      </trkpt>
      <trkpt lat="57.777031898719" lon="12.244079276409">
        <ele>6.4</ele>
        <time>2016-10-12T06:52:03Z</time>
      </trkpt>
      <trkpt lat="57.776925113313" lon="12.244273149756">
        <ele>6.6</ele>
        <time>2016-10-12T06:52:09Z</time>
      </trkpt>
      <trkpt lat="57.776808353446" lon="12.244431735304">
        <ele>6.8</ele>
        <time>2016-10-12T06:52:15Z</time>
      </trkpt>
      <trkpt lat="57.776646498957" lon="12.2445477408">
        <ele>6.8</ele>
        <time>2016-10-12T06:52:21Z</time>
      </trkpt>
      <trkpt lat="57.776486488486" lon="12.244658968613">
        <ele>7</ele>
        <time>2016-10-12T06:52:27Z</time>
      </trkpt>
      <trkpt lat="57.776307115826" lon="12.244747565296">
        <ele>7</ele>
        <time>2016-10-12T06:52:32Z</time>
      </trkpt>
      <trkpt lat="57.77611902599" lon="12.244862313507">
        <ele>7.4</ele>
        <time>2016-10-12T06:52:38Z</time>
      </trkpt>
      <trkpt lat="57.776097316869" lon="12.244875892185">
        <ele>7.4</ele>
        <time>2016-10-12T06:52:39Z</time>
      </trkpt>
      <trkpt lat="57.775964547573" lon="12.24495677752">
        <ele>8.2</ele>
        <time>2016-10-12T06:52:45Z</time>
      </trkpt>
      <trkpt lat="57.775914172354" lon="12.244969685646">
        <ele>8.4</ele>
        <time>2016-10-12T06:52:47Z</time>
      </trkpt>
      <trkpt lat="57.775881650582" lon="12.244984940704">
        <ele>8.6</ele>
        <time>2016-10-12T06:52:48Z</time>
      </trkpt>
      <trkpt lat="57.775733542409" lon="12.245006985101">
        <ele>9.4</ele>
        <time>2016-10-12T06:52:54Z</time>
      </trkpt>
      <trkpt lat="57.775664894648" lon="12.245020396141">
        <ele>9.6</ele>
        <time>2016-10-12T06:52:56Z</time>
      </trkpt>
      <trkpt lat="57.77552139652" lon="12.245072866835">
        <ele>10</ele>
        <time>2016-10-12T06:53:02Z</time>
      </trkpt>
      <trkpt lat="57.775311094649" lon="12.245153416894">
        <ele>10.6</ele>
        <time>2016-10-12T06:53:10Z</time>
      </trkpt>
      <trkpt lat="57.775153934024" lon="12.24517889787">
        <ele>11</ele>
        <time>2016-10-12T06:53:16Z</time>
      </trkpt>
      <trkpt lat="57.775007083136" lon="12.245272020779">
        <ele>11.2</ele>
        <time>2016-10-12T06:53:22Z</time>
      </trkpt>
      <trkpt lat="57.774855538384" lon="12.245381236936">
        <ele>11</ele>
        <time>2016-10-12T06:53:28Z</time>
      </trkpt>
      <trkpt lat="57.774711034428" lon="12.245510066739">
        <ele>10.4</ele>
        <time>2016-10-12T06:53:34Z</time>
      </trkpt>
      <trkpt lat="57.77456250716" lon="12.245647613718">
        <ele>10.2</ele>
        <time>2016-10-12T06:53:40Z</time>
      </trkpt>
      <trkpt lat="57.774418673756" lon="12.245774264227">
        <ele>9.8</ele>
        <time>2016-10-12T06:53:46Z</time>
      </trkpt>
      <trkpt lat="57.774272661058" lon="12.245887671334">
        <ele>10</ele>
        <time>2016-10-12T06:53:52Z</time>
      </trkpt>
      <trkpt lat="57.774140562314" lon="12.24602463158">
        <ele>10</ele>
        <time>2016-10-12T06:53:58Z</time>
      </trkpt>
      <trkpt lat="57.774034279822" lon="12.246163352025">
        <ele>10.2</ele>
        <time>2016-10-12T06:54:04Z</time>
      </trkpt>
      <trkpt lat="57.773985078069" lon="12.246250691423">
        <ele>10.4</ele>
        <time>2016-10-12T06:54:08Z</time>
      </trkpt>
      <trkpt lat="57.773883657079" lon="12.246441128191">
        <ele>11.4</ele>
        <time>2016-10-12T06:54:14Z</time>
      </trkpt>
      <trkpt lat="57.773763041538" lon="12.246614382064">
        <ele>11.8</ele>
        <time>2016-10-12T06:54:20Z</time>
      </trkpt>
      <trkpt lat="57.773654663571" lon="12.246735751976">
        <ele>12</ele>
        <time>2016-10-12T06:54:26Z</time>
      </trkpt>
      <trkpt lat="57.773548045803" lon="12.246832562921">
        <ele>12.6</ele>
        <time>2016-10-12T06:54:32Z</time>
      </trkpt>
      <trkpt lat="57.773433716687" lon="12.246934822101">
        <ele>13</ele>
        <time>2016-10-12T06:54:38Z</time>
      </trkpt>
      <trkpt lat="57.773279154451" lon="12.247018054368">
        <ele>12.8</ele>
        <time>2016-10-12T06:54:44Z</time>
      </trkpt>
      <trkpt lat="57.773094501194" lon="12.247046636647">
        <ele>13</ele>
        <time>2016-10-12T06:54:50Z</time>
      </trkpt>
      <trkpt lat="57.77292300752" lon="12.247090473984">
        <ele>12.6</ele>
        <time>2016-10-12T06:54:56Z</time>
      </trkpt>
      <trkpt lat="57.772838517968" lon="12.247089635794">
        <ele>11.8</ele>
        <time>2016-10-12T06:54:59Z</time>
      </trkpt>
      <trkpt lat="57.772717315694" lon="12.247067759035">
        <ele>11.6</ele>
        <time>2016-10-12T06:55:05Z</time>
      </trkpt>
      <trkpt lat="57.772537272482" lon="12.247082846455">
        <ele>11.6</ele>
        <time>2016-10-12T06:55:11Z</time>
      </trkpt>
      <trkpt lat="57.772364353885" lon="12.247125929421">
        <ele>11.6</ele>
        <time>2016-10-12T06:55:17Z</time>
      </trkpt>
      <trkpt lat="57.772182466655" lon="12.24720312672">
        <ele>11.4</ele>
        <time>2016-10-12T06:55:23Z</time>
      </trkpt>
      <trkpt lat="57.772032095369" lon="12.247274289051">
        <ele>11.2</ele>
        <time>2016-10-12T06:55:29Z</time>
      </trkpt>
      <trkpt lat="57.77186688812" lon="12.247373195471">
        <ele>11.2</ele>
        <time>2016-10-12T06:55:35Z</time>
      </trkpt>
      <trkpt lat="57.771783991129" lon="12.247424073604">
        <ele>11</ele>
        <time>2016-10-12T06:55:38Z</time>
      </trkpt>
      <trkpt lat="57.771679385017" lon="12.247508479337">
        <ele>10.8</ele>
        <time>2016-10-12T06:55:42Z</time>
      </trkpt>
      <trkpt lat="57.771541838038" lon="12.247614342734">
        <ele>10.4</ele>
        <time>2016-10-12T06:55:48Z</time>
      </trkpt>
      <trkpt lat="57.771405548344" lon="12.247733533352">
        <ele>10</ele>
        <time>2016-10-12T06:55:54Z</time>
      </trkpt>
      <trkpt lat="57.771343773741" lon="12.24781249085">
        <ele>9.6</ele>
        <time>2016-10-12T06:55:57Z</time>
      </trkpt>
      <trkpt lat="57.771238580896" lon="12.247950624562">
        <ele>8.6</ele>
        <time>2016-10-12T06:56:02Z</time>
      </trkpt>
      <trkpt lat="57.771111176016" lon="12.248143492081">
        <ele>7.4</ele>
        <time>2016-10-12T06:56:08Z</time>
      </trkpt>
      <trkpt lat="57.770989387009" lon="12.248347339889">
        <ele>6.4</ele>
        <time>2016-10-12T06:56:14Z</time>
      </trkpt>
      <trkpt lat="57.770858880826" lon="12.248540458865">
        <ele>5.6</ele>
        <time>2016-10-12T06:56:20Z</time>
      </trkpt>
      <trkpt lat="57.770837842257" lon="12.248577003949">
        <ele>5.4</ele>
        <time>2016-10-12T06:56:21Z</time>
      </trkpt>
      <trkpt lat="57.770708677178" lon="12.248796274453">
        <ele>4.8</ele>
        <time>2016-10-12T06:56:27Z</time>
      </trkpt>
      <trkpt lat="57.770579847375" lon="12.248998362062">
        <ele>4.6</ele>
        <time>2016-10-12T06:56:33Z</time>
      </trkpt>
      <trkpt lat="57.770512456899" lon="12.249097687577">
        <ele>4.2</ele>
        <time>2016-10-12T06:56:36Z</time>
      </trkpt>
      <trkpt lat="57.770377173033" lon="12.249283430481">
        <ele>4.2</ele>
        <time>2016-10-12T06:56:42Z</time>
      </trkpt>
      <trkpt lat="57.770254881112" lon="12.249475627448">
        <ele>4</ele>
        <time>2016-10-12T06:56:48Z</time>
      </trkpt>
      <trkpt lat="57.770130912811" lon="12.249656089755">
        <ele>3.8</ele>
        <time>2016-10-12T06:56:54Z</time>
      </trkpt>
      <trkpt lat="57.770016667514" lon="12.24983588151">
        <ele>3.8</ele>
        <time>2016-10-12T06:57:00Z</time>
      </trkpt>
      <trkpt lat="57.769893621222" lon="12.250030928323">
        <ele>3.8</ele>
        <time>2016-10-12T06:57:06Z</time>
      </trkpt>
      <trkpt lat="57.769872331196" lon="12.25006889833">
        <ele>3.8</ele>
        <time>2016-10-12T06:57:07Z</time>
      </trkpt>
      <trkpt lat="57.769748195257" lon="12.250258077813">
        <ele>3.8</ele>
        <time>2016-10-12T06:57:13Z</time>
      </trkpt>
      <trkpt lat="57.7696138334" lon="12.250455974472">
        <ele>3.8</ele>
        <time>2016-10-12T06:57:19Z</time>
      </trkpt>
      <trkpt lat="57.769480058276" lon="12.25066736599">
        <ele>3.4</ele>
        <time>2016-10-12T06:57:25Z</time>
      </trkpt>
      <trkpt lat="57.769370506843" lon="12.250824023701">
        <ele>3.2</ele>
        <time>2016-10-12T06:57:30Z</time>
      </trkpt>
      <trkpt lat="57.769243185782" lon="12.250997193755">
        <ele>3.2</ele>
        <time>2016-10-12T06:57:36Z</time>
      </trkpt>
      <trkpt lat="57.76911594854" lon="12.25117614732">
        <ele>3.2</ele>
        <time>2016-10-12T06:57:42Z</time>
      </trkpt>
      <trkpt lat="57.768997847569" lon="12.251348395365">
        <ele>3.4</ele>
        <time>2016-10-12T06:57:48Z</time>
      </trkpt>
      <trkpt lat="57.768879327503" lon="12.251535144097">
        <ele>3.2</ele>
        <time>2016-10-12T06:57:54Z</time>
      </trkpt>
      <trkpt lat="57.768761561808" lon="12.251719545897">
        <ele>3</ele>
        <time>2016-10-12T06:58:00Z</time>
      </trkpt>
      <trkpt lat="57.768647987063" lon="12.251923309886">
        <ele>2.8</ele>
        <time>2016-10-12T06:58:06Z</time>
      </trkpt>
      <trkpt lat="57.768514379577" lon="12.252075106095">
        <ele>2.8</ele>
        <time>2016-10-12T06:58:12Z</time>
      </trkpt>
      <trkpt lat="57.768379347168" lon="12.252216760205">
        <ele>3.2</ele>
        <time>2016-10-12T06:58:18Z</time>
      </trkpt>
      <trkpt lat="57.768256887609" lon="12.25240241929">
        <ele>3.2</ele>
        <time>2016-10-12T06:58:24Z</time>
      </trkpt>
      <trkpt lat="57.768141552665" lon="12.252551784748">
        <ele>3.4</ele>
        <time>2016-10-12T06:58:30Z</time>
      </trkpt>
      <trkpt lat="57.768027055911" lon="12.252738114385">
        <ele>3.6</ele>
        <time>2016-10-12T06:58:36Z</time>
      </trkpt>
      <trkpt lat="57.767883138688" lon="12.252921007443">
        <ele>3.6</ele>
        <time>2016-10-12T06:58:42Z</time>
      </trkpt>
      <trkpt lat="57.767642159063" lon="12.253293834355">
        <ele>3.6</ele>
        <time>2016-10-12T06:58:53Z</time>
      </trkpt>
      <trkpt lat="57.767504276808" lon="12.253490641367">
        <ele>4</ele>
        <time>2016-10-12T06:58:59Z</time>
      </trkpt>
      <trkpt lat="57.767373938263" lon="12.25368736456">
        <ele>3.8</ele>
        <time>2016-10-12T06:59:05Z</time>
      </trkpt>
      <trkpt lat="57.767247455392" lon="12.253859612605">
        <ele>3.4</ele>
        <time>2016-10-12T06:59:11Z</time>
      </trkpt>
      <trkpt lat="57.767187105712" lon="12.253919124095">
        <ele>3.4</ele>
        <time>2016-10-12T06:59:14Z</time>
      </trkpt>
      <trkpt lat="57.76705483933" lon="12.254058012178">
        <ele>3</ele>
        <time>2016-10-12T06:59:20Z</time>
      </trkpt>
      <trkpt lat="57.76695258015" lon="12.254170664914">
        <ele>3</ele>
        <time>2016-10-12T06:59:26Z</time>
      </trkpt>
      <trkpt lat="57.766813524429" lon="12.254326652073">
        <ele>2.6</ele>
        <time>2016-10-12T06:59:32Z</time>
      </trkpt>
      <trkpt lat="57.766672373233" lon="12.254501917602">
        <ele>2.8</ele>
        <time>2016-10-12T06:59:38Z</time>
      </trkpt>
      <trkpt lat="57.766550584226" lon="12.254698976071">
        <ele>3.6</ele>
        <time>2016-10-12T06:59:44Z</time>
      </trkpt>
      <trkpt lat="57.76642368226" lon="12.254893352332">
        <ele>4</ele>
        <time>2016-10-12T06:59:50Z</time>
      </trkpt>
      <trkpt lat="57.766305162194" lon="12.255084124376">
        <ele>4.2</ele>
        <time>2016-10-12T06:59:56Z</time>
      </trkpt>
      <trkpt lat="57.766258726468" lon="12.255133577586">
        <ele>4.4</ele>
        <time>2016-10-12T06:59:58Z</time>
      </trkpt>
      <trkpt lat="57.766120508937" lon="12.255314207531">
        <ele>5</ele>
        <time>2016-10-12T07:00:04Z</time>
      </trkpt>
      <trkpt lat="57.766035684109" lon="12.255436834728">
        <ele>5.4</ele>
        <time>2016-10-12T07:00:08Z</time>
      </trkpt>
      <trkpt lat="57.765911380532" lon="12.255596426104">
        <ele>5.4</ele>
        <time>2016-10-12T07:00:14Z</time>
      </trkpt>
      <trkpt lat="57.765781041987" lon="12.255807230889">
        <ele>5.2</ele>
        <time>2016-10-12T07:00:20Z</time>
      </trkpt>
      <trkpt lat="57.765649697614" lon="12.25602759104">
        <ele>4.2</ele>
        <time>2016-10-12T07:00:26Z</time>
      </trkpt>
      <trkpt lat="57.765512905006" lon="12.256220039464">
        <ele>4.2</ele>
        <time>2016-10-12T07:00:32Z</time>
      </trkpt>
      <trkpt lat="57.765382231185" lon="12.256410308594">
        <ele>3.4</ele>
        <time>2016-10-12T07:00:38Z</time>
      </trkpt>
      <trkpt lat="57.765261448006" lon="12.256607869977">
        <ele>3.4</ele>
        <time>2016-10-12T07:00:44Z</time>
      </trkpt>
      <trkpt lat="57.765152650944" lon="12.256766790801">
        <ele>3.6</ele>
        <time>2016-10-12T07:00:50Z</time>
      </trkpt>
      <trkpt lat="57.765027006263" lon="12.256938535932">
        <ele>3.6</ele>
        <time>2016-10-12T07:00:56Z</time>
      </trkpt>
      <trkpt lat="57.764934134811" lon="12.257044064053">
        <ele>3</ele>
        <time>2016-10-12T07:01:00Z</time>
      </trkpt>
      <trkpt lat="57.764789547036" lon="12.257233411174">
        <ele>2.8</ele>
        <time>2016-10-12T07:01:06Z</time>
      </trkpt>
      <trkpt lat="57.764660298138" lon="12.257447987814">
        <ele>2.6</ele>
        <time>2016-10-12T07:01:12Z</time>
      </trkpt>
      <trkpt lat="57.76452434372" lon="12.257691482009">
        <ele>3</ele>
        <time>2016-10-12T07:01:18Z</time>
      </trkpt>
      <trkpt lat="57.764388724578" lon="12.257905304278">
        <ele>3</ele>
        <time>2016-10-12T07:01:24Z</time>
      </trkpt>
      <trkpt lat="57.764261403517" lon="12.258094232304">
        <ele>3.4</ele>
        <time>2016-10-12T07:01:30Z</time>
      </trkpt>
      <trkpt lat="57.76412787985" lon="12.258241921382">
        <ele>3.4</ele>
        <time>2016-10-12T07:01:36Z</time>
      </trkpt>
      <trkpt lat="57.764024279566" lon="12.258384748958">
        <ele>4.2</ele>
        <time>2016-10-12T07:01:41Z</time>
      </trkpt>
      <trkpt lat="57.763982537704" lon="12.258458258221">
        <ele>4</ele>
        <time>2016-10-12T07:01:45Z</time>
      </trkpt>
      <trkpt lat="57.763992763622" lon="12.258441242964">
        <ele>4</ele>
        <time>2016-10-12T07:01:48Z</time>
      </trkpt>
      <trkpt lat="57.764053616216" lon="12.258323644907">
        <ele>4.2</ele>
        <time>2016-10-12T07:01:54Z</time>
      </trkpt>
      <trkpt lat="57.764172723015" lon="12.25814988812">
        <ele>3.6</ele>
        <time>2016-10-12T07:02:00Z</time>
      </trkpt>
      <trkpt lat="57.764249585038" lon="12.258015945358">
        <ele>3</ele>
        <time>2016-10-12T07:02:05Z</time>
      </trkpt>
      <trkpt lat="57.764362153955" lon="12.257814276844">
        <ele>3.2</ele>
        <time>2016-10-12T07:02:11Z</time>
      </trkpt>
      <trkpt lat="57.764489475016" lon="12.25759249177">
        <ele>3.2</ele>
        <time>2016-10-12T07:02:17Z</time>
      </trkpt>
      <trkpt lat="57.764608833272" lon="12.257419321716">
        <ele>3.4</ele>
        <time>2016-10-12T07:02:23Z</time>
      </trkpt>
      <trkpt lat="57.76472467113" lon="12.257264591842">
        <ele>2.8</ele>
        <time>2016-10-12T07:02:29Z</time>
      </trkpt>
      <trkpt lat="57.764851154001" lon="12.257132828374">
        <ele>3.2</ele>
        <time>2016-10-12T07:02:35Z</time>
      </trkpt>
      <trkpt lat="57.764958107045" lon="12.256978769052">
        <ele>3.4</ele>
        <time>2016-10-12T07:02:41Z</time>
      </trkpt>
      <trkpt lat="57.765063635166" lon="12.256835690019">
        <ele>3.6</ele>
        <time>2016-10-12T07:02:47Z</time>
      </trkpt>
      <trkpt lat="57.765172013133" lon="12.256676182462">
        <ele>3.8</ele>
        <time>2016-10-12T07:02:53Z</time>
      </trkpt>
      <trkpt lat="57.765234039193" lon="12.25657912006">
        <ele>4</ele>
        <time>2016-10-12T07:02:56Z</time>
      </trkpt>
      <trkpt lat="57.765340573142" lon="12.256394215346">
        <ele>4.4</ele>
        <time>2016-10-12T07:03:02Z</time>
      </trkpt>
      <trkpt lat="57.765454650801" lon="12.256207969528">
        <ele>4.2</ele>
        <time>2016-10-12T07:03:08Z</time>
      </trkpt>
      <trkpt lat="57.76557794855" lon="12.256012335982">
        <ele>4.6</ele>
        <time>2016-10-12T07:03:14Z</time>
      </trkpt>
      <trkpt lat="57.765708370914" lon="12.255834136788">
        <ele>5</ele>
        <time>2016-10-12T07:03:20Z</time>
      </trkpt>
      <trkpt lat="57.765751118604" lon="12.255802537025">
        <ele>5.2</ele>
        <time>2016-10-12T07:03:22Z</time>
      </trkpt>
      <trkpt lat="57.765892018343" lon="12.255611429705">
        <ele>5.2</ele>
        <time>2016-10-12T07:03:28Z</time>
      </trkpt>
      <trkpt lat="57.766028559494" lon="12.255450581044">
        <ele>5.2</ele>
        <time>2016-10-12T07:03:34Z</time>
      </trkpt>
      <trkpt lat="57.766182702635" lon="12.255291324944">
        <ele>4.4</ele>
        <time>2016-10-12T07:03:40Z</time>
      </trkpt>
      <trkpt lat="57.766261827771" lon="12.255183785167">
        <ele>4</ele>
        <time>2016-10-12T07:03:44Z</time>
      </trkpt>
      <trkpt lat="57.766379342009" lon="12.25502846856">
        <ele>3.4</ele>
        <time>2016-10-12T07:03:50Z</time>
      </trkpt>
      <trkpt lat="57.766510937839" lon="12.254828727883">
        <ele>3</ele>
        <time>2016-10-12T07:03:56Z</time>
      </trkpt>
      <trkpt lat="57.766670696853" lon="12.254613313053">
        <ele>2.4</ele>
        <time>2016-10-12T07:04:02Z</time>
      </trkpt>
      <trkpt lat="57.766811512773" lon="12.254423127742">
        <ele>2.4</ele>
        <time>2016-10-12T07:04:08Z</time>
      </trkpt>
      <trkpt lat="57.766955681453" lon="12.254225733997">
        <ele>2.6</ele>
        <time>2016-10-12T07:04:14Z</time>
      </trkpt>
      <trkpt lat="57.767062215402" lon="12.254046193699">
        <ele>2.8</ele>
        <time>2016-10-12T07:04:20Z</time>
      </trkpt>
      <trkpt lat="57.767208814833" lon="12.253848883773">
        <ele>3</ele>
        <time>2016-10-12T07:04:26Z</time>
      </trkpt>
      <trkpt lat="57.767437975979" lon="12.253540765129">
        <ele>3.6</ele>
        <time>2016-10-12T07:04:37Z</time>
      </trkpt>
      <trkpt lat="57.767569404171" lon="12.253362901211">
        <ele>3.8</ele>
        <time>2016-10-12T07:04:43Z</time>
      </trkpt>
      <trkpt lat="57.767706029141" lon="12.253169782235">
        <ele>3.8</ele>
        <time>2016-10-12T07:04:49Z</time>
      </trkpt>
      <trkpt lat="57.76783854698" lon="12.252999881122">
        <ele>3.8</ele>
        <time>2016-10-12T07:04:55Z</time>
      </trkpt>
      <trkpt lat="57.767987828619" lon="12.252838110452">
        <ele>3.4</ele>
        <time>2016-10-12T07:05:01Z</time>
      </trkpt>
      <trkpt lat="57.768137026439" lon="12.252635268472">
        <ele>3.4</ele>
        <time>2016-10-12T07:05:07Z</time>
      </trkpt>
      <trkpt lat="57.768284883155" lon="12.252444077333">
        <ele>3.2</ele>
        <time>2016-10-12T07:05:13Z</time>
      </trkpt>
      <trkpt lat="57.768416143709" lon="12.252283815405">
        <ele>2.6</ele>
        <time>2016-10-12T07:05:19Z</time>
      </trkpt>
      <trkpt lat="57.768541034019" lon="12.25218532808">
        <ele>2.4</ele>
        <time>2016-10-12T07:05:25Z</time>
      </trkpt>
      <trkpt lat="57.768662571569" lon="12.252006458334">
        <ele>2.6</ele>
        <time>2016-10-12T07:05:31Z</time>
      </trkpt>
      <trkpt lat="57.768784192938" lon="12.251768160917">
        <ele>2.6</ele>
        <time>2016-10-12T07:05:37Z</time>
      </trkpt>
      <trkpt lat="57.768917548967" lon="12.251565402756">
        <ele>2.4</ele>
        <time>2016-10-12T07:05:43Z</time>
      </trkpt>
      <trkpt lat="57.769045875856" lon="12.251376390911">
        <ele>2.4</ele>
        <time>2016-10-12T07:05:49Z</time>
      </trkpt>
      <trkpt lat="57.769169927976" lon="12.251175979682">
        <ele>2.4</ele>
        <time>2016-10-12T07:05:55Z</time>
      </trkpt>
      <trkpt lat="57.769275372278" lon="12.250965677811">
        <ele>2.6</ele>
        <time>2016-10-12T07:06:01Z</time>
      </trkpt>
      <trkpt lat="57.769398670027" lon="12.250763422564">
        <ele>2.4</ele>
        <time>2016-10-12T07:06:07Z</time>
      </trkpt>
      <trkpt lat="57.769516770998" lon="12.250607938319">
        <ele>2.8</ele>
        <time>2016-10-12T07:06:13Z</time>
      </trkpt>
      <trkpt lat="57.769639062919" lon="12.250429906763">
        <ele>3.4</ele>
        <time>2016-10-12T07:06:19Z</time>
      </trkpt>
      <trkpt lat="57.769755571329" lon="12.250249444456">
        <ele>3.4</ele>
        <time>2016-10-12T07:06:25Z</time>
      </trkpt>
      <trkpt lat="57.769881048372" lon="12.2500797948">
        <ele>3.6</ele>
        <time>2016-10-12T07:06:31Z</time>
      </trkpt>
      <trkpt lat="57.7699994008" lon="12.249950629721">
        <ele>3.4</ele>
        <time>2016-10-12T07:06:37Z</time>
      </trkpt>
      <trkpt lat="57.770134936123" lon="12.249742088049">
        <ele>3</ele>
        <time>2016-10-12T07:06:43Z</time>
      </trkpt>
      <trkpt lat="57.770258988243" lon="12.24956933709">
        <ele>3.4</ele>
        <time>2016-10-12T07:06:49Z</time>
      </trkpt>
      <trkpt lat="57.770383962372" lon="12.249369931689">
        <ele>3.4</ele>
        <time>2016-10-12T07:06:55Z</time>
      </trkpt>
      <trkpt lat="57.770503907361" lon="12.24921142996">
        <ele>3.6</ele>
        <time>2016-10-12T07:07:01Z</time>
      </trkpt>
      <trkpt lat="57.770629132947" lon="12.24902116083">
        <ele>3.8</ele>
        <time>2016-10-12T07:07:07Z</time>
      </trkpt>
      <trkpt lat="57.770702809848" lon="12.248893588312">
        <ele>4.2</ele>
        <time>2016-10-12T07:07:11Z</time>
      </trkpt>
      <trkpt lat="57.770819904991" lon="12.248699714965">
        <ele>4.8</ele>
        <time>2016-10-12T07:07:17Z</time>
      </trkpt>
      <trkpt lat="57.770948483337" lon="12.248500141926">
        <ele>5</ele>
        <time>2016-10-12T07:07:23Z</time>
      </trkpt>
      <trkpt lat="57.770984776964" lon="12.248442558273">
        <ele>5.2</ele>
        <time>2016-10-12T07:07:25Z</time>
      </trkpt>
      <trkpt lat="57.771089299257" lon="12.248296210299">
        <ele>6</ele>
        <time>2016-10-12T07:07:31Z</time>
      </trkpt>
      <trkpt lat="57.7711225754" lon="12.2482357768">
        <ele>6.2</ele>
        <time>2016-10-12T07:07:33Z</time>
      </trkpt>
      <trkpt lat="57.771222655286" lon="12.248070904827">
        <ele>7.2</ele>
        <time>2016-10-12T07:07:39Z</time>
      </trkpt>
      <trkpt lat="57.771306306648" lon="12.247944505775">
        <ele>8.2</ele>
        <time>2016-10-12T07:07:44Z</time>
      </trkpt>
      <trkpt lat="57.771401441213" lon="12.247795224136">
        <ele>9</ele>
        <time>2016-10-12T07:07:50Z</time>
      </trkpt>
      <trkpt lat="57.771437148107" lon="12.247755242473">
        <ele>9</ele>
        <time>2016-10-12T07:07:52Z</time>
      </trkpt>
      <trkpt lat="57.771472771182" lon="12.247706459815">
        <ele>9.4</ele>
        <time>2016-10-12T07:07:54Z</time>
      </trkpt>
      <trkpt lat="57.771608390324" lon="12.247552568131">
        <ele>9.6</ele>
        <time>2016-10-12T07:08:00Z</time>
      </trkpt>
      <trkpt lat="57.77176881989" lon="12.247437317006">
        <ele>11</ele>
        <time>2016-10-12T07:08:06Z</time>
      </trkpt>
      <trkpt lat="57.771862110437" lon="12.247360790259">
        <ele>10</ele>
        <time>2016-10-12T07:08:10Z</time>
      </trkpt>
      <trkpt lat="57.772024635478" lon="12.247263057305">
        <ele>10.2</ele>
        <time>2016-10-12T07:08:16Z</time>
      </trkpt>
      <trkpt lat="57.772181293189" lon="12.247201534159">
        <ele>10.6</ele>
        <time>2016-10-12T07:08:22Z</time>
      </trkpt>
      <trkpt lat="57.772350356112" lon="12.247173873889">
        <ele>10.4</ele>
        <time>2016-10-12T07:08:28Z</time>
      </trkpt>
      <trkpt lat="57.772519419035" lon="12.247187955481">
        <ele>10.4</ele>
        <time>2016-10-12T07:08:34Z</time>
      </trkpt>
      <trkpt lat="57.772679597144" lon="12.24720647948">
        <ele>10.2</ele>
        <time>2016-10-12T07:08:40Z</time>
      </trkpt>
      <trkpt lat="57.772822759996" lon="12.247242437831">
        <ele>10.4</ele>
        <time>2016-10-12T07:08:46Z</time>
      </trkpt>
      <trkpt lat="57.772974472386" lon="12.247225338755">
        <ele>11</ele>
        <time>2016-10-12T07:08:52Z</time>
      </trkpt>
      <trkpt lat="57.773110929718" lon="12.247167671283">
        <ele>11.4</ele>
        <time>2016-10-12T07:08:58Z</time>
      </trkpt>
      <trkpt lat="57.773252583828" lon="12.247095419305">
        <ele>11.8</ele>
        <time>2016-10-12T07:09:04Z</time>
      </trkpt>
      <trkpt lat="57.773390801359" lon="12.246998021627">
        <ele>11.6</ele>
        <time>2016-10-12T07:09:10Z</time>
      </trkpt>
      <trkpt lat="57.77354075355" lon="12.246843207934">
        <ele>11.6</ele>
        <time>2016-10-12T07:09:16Z</time>
      </trkpt>
      <trkpt lat="57.77361535246" lon="12.246763328427">
        <ele>12.2</ele>
        <time>2016-10-12T07:09:19Z</time>
      </trkpt>
      <trkpt lat="57.773735884182" lon="12.246590912744">
        <ele>12.2</ele>
        <time>2016-10-12T07:09:25Z</time>
      </trkpt>
      <trkpt lat="57.773824397046" lon="12.246427465694">
        <ele>11.8</ele>
        <time>2016-10-12T07:09:31Z</time>
      </trkpt>
      <trkpt lat="57.773919866887" lon="12.246306682515">
        <ele>11</ele>
        <time>2016-10-12T07:09:36Z</time>
      </trkpt>
      <trkpt lat="57.773992202684" lon="12.246231329234">
        <ele>10.6</ele>
        <time>2016-10-12T07:09:40Z</time>
      </trkpt>
      <trkpt lat="57.774140143219" lon="12.246038629353">
        <ele>10.2</ele>
        <time>2016-10-12T07:09:46Z</time>
      </trkpt>
      <trkpt lat="57.774192194818" lon="12.245995043473">
        <ele>10</ele>
        <time>2016-10-12T07:09:48Z</time>
      </trkpt>
      <trkpt lat="57.774331585815" lon="12.245874008837">
        <ele>9.6</ele>
        <time>2016-10-12T07:09:54Z</time>
      </trkpt>
      <trkpt lat="57.774472234097" lon="12.245758506255">
        <ele>9.8</ele>
        <time>2016-10-12T07:10:00Z</time>
      </trkpt>
      <trkpt lat="57.774646829074" lon="12.245630263185">
        <ele>9.8</ele>
        <time>2016-10-12T07:10:06Z</time>
      </trkpt>
      <trkpt lat="57.774765432959" lon="12.245572176618">
        <ele>10.4</ele>
        <time>2016-10-12T07:10:12Z</time>
      </trkpt>
      <trkpt lat="57.774870625804" lon="12.245461786995">
        <ele>10.6</ele>
        <time>2016-10-12T07:10:18Z</time>
      </trkpt>
      <trkpt lat="57.775028289343" lon="12.245342764015">
        <ele>10.6</ele>
        <time>2016-10-12T07:10:25Z</time>
      </trkpt>
      <trkpt lat="57.775226269821" lon="12.245281073231">
        <ele>10.8</ele>
        <time>2016-10-12T07:10:31Z</time>
      </trkpt>
      <trkpt lat="57.775392818174" lon="12.245241007749">
        <ele>10.8</ele>
        <time>2016-10-12T07:10:37Z</time>
      </trkpt>
      <trkpt lat="57.775545536392" lon="12.245231284745">
        <ele>10.4</ele>
        <time>2016-10-12T07:10:43Z</time>
      </trkpt>
      <trkpt lat="57.775693560746" lon="12.245205049398">
        <ele>9.6</ele>
        <time>2016-10-12T07:10:49Z</time>
      </trkpt>
      <trkpt lat="57.775869999741" lon="12.245143442433">
        <ele>9.2</ele>
        <time>2016-10-12T07:10:54Z</time>
      </trkpt>
      <trkpt lat="57.775937054941" lon="12.245102454942">
        <ele>9</ele>
        <time>2016-10-12T07:10:56Z</time>
      </trkpt>
      <trkpt lat="57.776133694315" lon="12.244970942931">
        <ele>8</ele>
        <time>2016-10-12T07:11:02Z</time>
      </trkpt>
      <trkpt lat="57.776162863327" lon="12.244950072">
        <ele>7.8</ele>
        <time>2016-10-12T07:11:03Z</time>
      </trkpt>
      <trkpt lat="57.776341313978" lon="12.244830629925">
        <ele>6.8</ele>
        <time>2016-10-12T07:11:09Z</time>
      </trkpt>
      <trkpt lat="57.776486069391" lon="12.244761227793">
        <ele>6.6</ele>
        <time>2016-10-12T07:11:15Z</time>
      </trkpt>
      <trkpt lat="57.776625711845" lon="12.244666931418">
        <ele>6.6</ele>
        <time>2016-10-12T07:11:21Z</time>
      </trkpt>
      <trkpt lat="57.776757894408" lon="12.24451002225">
        <ele>6.4</ele>
        <time>2016-10-12T07:11:27Z</time>
      </trkpt>
      <trkpt lat="57.776872977895" lon="12.244345569372">
        <ele>6.2</ele>
        <time>2016-10-12T07:11:33Z</time>
      </trkpt>
      <trkpt lat="57.776994683083" lon="12.24405656146">
        <ele>6.2</ele>
        <time>2016-10-12T07:11:38Z</time>
      </trkpt>
      <trkpt lat="57.777105659439" lon="12.243768391738">
        <ele>6.4</ele>
        <time>2016-10-12T07:11:44Z</time>
      </trkpt>
      <trkpt lat="57.777182018548" lon="12.243468403537">
        <ele>5.8</ele>
        <time>2016-10-12T07:11:50Z</time>
      </trkpt>
      <trkpt lat="57.777184868394" lon="12.24341450792">
        <ele>5.8</ele>
        <time>2016-10-12T07:11:51Z</time>
      </trkpt>
      <trkpt lat="57.777227532265" lon="12.243216778899">
        <ele>6</ele>
        <time>2016-10-12T07:11:57Z</time>
      </trkpt>
      <trkpt lat="57.777254941078" lon="12.243015110385">
        <ele>6.2</ele>
        <time>2016-10-12T07:12:03Z</time>
      </trkpt>
      <trkpt lat="57.777274554724" lon="12.242797264804">
        <ele>6.4</ele>
        <time>2016-10-12T07:12:09Z</time>
      </trkpt>
      <trkpt lat="57.777304142831" lon="12.242502138105">
        <ele>6.2</ele>
        <time>2016-10-12T07:12:15Z</time>
      </trkpt>
      <trkpt lat="57.777340101182" lon="12.242149930667">
        <ele>5.6</ele>
        <time>2016-10-12T07:12:21Z</time>
      </trkpt>
      <trkpt lat="57.777355775335" lon="12.241857821452">
        <ele>5.6</ele>
        <time>2016-10-12T07:12:27Z</time>
      </trkpt>
      <trkpt lat="57.77736122357" lon="12.241570909015">
        <ele>5.6</ele>
        <time>2016-10-12T07:12:33Z</time>
      </trkpt>
      <trkpt lat="57.777349405091" lon="12.241311740667">
        <ele>6.2</ele>
        <time>2016-10-12T07:12:39Z</time>
      </trkpt>
      <trkpt lat="57.777335826413" lon="12.241060283667">
        <ele>6.2</ele>
        <time>2016-10-12T07:12:45Z</time>
      </trkpt>
      <trkpt lat="57.777237255269" lon="12.240738837802">
        <ele>6.4</ele>
        <time>2016-10-12T07:12:51Z</time>
      </trkpt>
      <trkpt lat="57.777170786802" lon="12.240415045005">
        <ele>6.2</ele>
        <time>2016-10-12T07:12:57Z</time>
      </trkpt>
      <trkpt lat="57.777111778226" lon="12.240121175591">
        <ele>6</ele>
        <time>2016-10-12T07:13:03Z</time>
      </trkpt>
      <trkpt lat="57.77704941689" lon="12.239822277037">
        <ele>6.6</ele>
        <time>2016-10-12T07:13:09Z</time>
      </trkpt>
      <trkpt lat="57.77694967228" lon="12.239554140056">
        <ele>6.6</ele>
        <time>2016-10-12T07:13:15Z</time>
      </trkpt>
      <trkpt lat="57.77688429346" lon="12.239458418758">
        <ele>7</ele>
        <time>2016-10-12T07:13:18Z</time>
      </trkpt>
      <trkpt lat="57.776754206372" lon="12.239238226245">
        <ele>7.4</ele>
        <time>2016-10-12T07:13:24Z</time>
      </trkpt>
      <trkpt lat="57.776631746813" lon="12.239010490022">
        <ele>7.4</ele>
        <time>2016-10-12T07:13:30Z</time>
      </trkpt>
      <trkpt lat="57.776536612248" lon="12.238842432927">
        <ele>8.2</ele>
        <time>2016-10-12T07:13:35Z</time>
      </trkpt>
      <trkpt lat="57.776455056361" lon="12.238590975927">
        <ele>8.6</ele>
        <time>2016-10-12T07:13:41Z</time>
      </trkpt>
      <trkpt lat="57.776371237361" lon="12.238374303812">
        <ele>8.2</ele>
        <time>2016-10-12T07:13:47Z</time>
      </trkpt>
      <trkpt lat="57.776276773348" lon="12.238185711062">
        <ele>8.4</ele>
        <time>2016-10-12T07:13:53Z</time>
      </trkpt>
      <trkpt lat="57.776197899669" lon="12.238014385026">
        <ele>8</ele>
        <time>2016-10-12T07:13:59Z</time>
      </trkpt>
      <trkpt lat="57.776092120091" lon="12.237785726794">
        <ele>7.8</ele>
        <time>2016-10-12T07:14:05Z</time>
      </trkpt>
      <trkpt lat="57.776011402394" lon="12.237493952855">
        <ele>7.8</ele>
        <time>2016-10-12T07:14:11Z</time>
      </trkpt>
      <trkpt lat="57.775908388843" lon="12.237193797016">
        <ele>7.2</ele>
        <time>2016-10-12T07:14:17Z</time>
      </trkpt>
      <trkpt lat="57.775836639779" lon="12.237131687137">
        <ele>7</ele>
        <time>2016-10-12T07:14:19Z</time>
      </trkpt>
      <trkpt lat="57.775694147479" lon="12.236935131582">
        <ele>7</ele>
        <time>2016-10-12T07:14:25Z</time>
      </trkpt>
      <trkpt lat="57.775571101187" lon="12.236694319595">
        <ele>6.8</ele>
        <time>2016-10-12T07:14:31Z</time>
      </trkpt>
      <trkpt lat="57.775460627745" lon="12.236457363282">
        <ele>7</ele>
        <time>2016-10-12T07:14:37Z</time>
      </trkpt>
      <trkpt lat="57.775396003296" lon="12.23624043971">
        <ele>7.4</ele>
        <time>2016-10-12T07:14:43Z</time>
      </trkpt>
      <trkpt lat="57.77530179074" lon="12.236044219431">
        <ele>8.2</ele>
        <time>2016-10-12T07:14:49Z</time>
      </trkpt>
      <trkpt lat="57.775258121041" lon="12.23588420896">
        <ele>9.2</ele>
        <time>2016-10-12T07:14:53Z</time>
      </trkpt>
      <trkpt lat="57.775196262619" lon="12.235676756935">
        <ele>10</ele>
        <time>2016-10-12T07:14:59Z</time>
      </trkpt>
      <trkpt lat="57.775045891333" lon="12.235727215973">
        <ele>9.6</ele>
        <time>2016-10-12T07:15:05Z</time>
      </trkpt>
      <trkpt lat="57.774894933314" lon="12.235803994177">
        <ele>9.6</ele>
        <time>2016-10-12T07:15:11Z</time>
      </trkpt>
      <trkpt lat="57.774757470154" lon="12.235912623601">
        <ele>9.4</ele>
        <time>2016-10-12T07:15:17Z</time>
      </trkpt>
      <trkpt lat="57.774591592353" lon="12.235935170912">
        <ele>8.8</ele>
        <time>2016-10-12T07:15:23Z</time>
      </trkpt>
      <trkpt lat="57.774518334547" lon="12.235920334949">
        <ele>8</ele>
        <time>2016-10-12T07:15:26Z</time>
      </trkpt>
      <trkpt lat="57.774409872761" lon="12.235795696096">
        <ele>6.6</ele>
        <time>2016-10-12T07:15:32Z</time>
      </trkpt>
      <trkpt lat="57.77432194663" lon="12.235688659233">
        <ele>5.4</ele>
        <time>2016-10-12T07:15:36Z</time>
      </trkpt>
      <trkpt lat="57.774224632771" lon="12.235505598537">
        <ele>4.2</ele>
        <time>2016-10-12T07:15:41Z</time>
      </trkpt>
      <trkpt lat="57.774194038836" lon="12.235207370535">
        <ele>3.4</ele>
        <time>2016-10-12T07:15:47Z</time>
      </trkpt>
      <trkpt lat="57.774158164304" lon="12.234822389868">
        <ele>3.2</ele>
        <time>2016-10-12T07:15:55Z</time>
      </trkpt>
      <trkpt lat="57.774146429644" lon="12.234546206263">
        <ele>3</ele>
        <time>2016-10-12T07:16:01Z</time>
      </trkpt>
      <trkpt lat="57.774128240921" lon="12.234276895816">
        <ele>3.2</ele>
        <time>2016-10-12T07:16:07Z</time>
      </trkpt>
      <trkpt lat="57.77411156094" lon="12.233954611761">
        <ele>3.2</ele>
        <time>2016-10-12T07:16:13Z</time>
      </trkpt>
      <trkpt lat="57.774117176813" lon="12.23364456528">
        <ele>3.2</ele>
        <time>2016-10-12T07:16:19Z</time>
      </trkpt>
      <trkpt lat="57.774147351653" lon="12.233352791341">
        <ele>3.2</ele>
        <time>2016-10-12T07:16:25Z</time>
      </trkpt>
      <trkpt lat="57.774196469587" lon="12.233095299373">
        <ele>3</ele>
        <time>2016-10-12T07:16:31Z</time>
      </trkpt>
      <trkpt lat="57.774211054093" lon="12.233063448153">
        <ele>3</ele>
        <time>2016-10-12T07:16:32Z</time>
      </trkpt>
      <trkpt lat="57.774346086502" lon="12.233083229437">
        <ele>3.6</ele>
        <time>2016-10-12T07:16:38Z</time>
      </trkpt>
      <trkpt lat="57.774482795291" lon="12.233067136189">
        <ele>4</ele>
        <time>2016-10-12T07:16:44Z</time>
      </trkpt>
      <trkpt lat="57.77451640671" lon="12.233016258056">
        <ele>4.2</ele>
        <time>2016-10-12T07:16:46Z</time>
      </trkpt>
      <trkpt lat="57.774621851012" lon="12.232897905628">
        <ele>5</ele>
        <time>2016-10-12T07:16:52Z</time>
      </trkpt>
      <trkpt lat="57.774637608984" lon="12.232889439909">
        <ele>5</ele>
        <time>2016-10-12T07:16:53Z</time>
      </trkpt>
      <trkpt lat="57.774711369704" lon="12.232754156043">
        <ele>5</ele>
        <time>2016-10-12T07:16:59Z</time>
      </trkpt>
      <trkpt lat="57.77474942353" lon="12.232700511883">
        <ele>4.8</ele>
        <time>2016-10-12T07:17:02Z</time>
      </trkpt>
    </trkseg>
  </trk>
</gpx>